createdAt,value
2022-09-17T00:01:33.263Z,2.13
2022-09-17T00:03:06.116Z,1.93
2022-09-17T00:04:39.672Z,2.00
2022-09-17T00:06:13.951Z,2.00
2022-09-17T00:07:47.336Z,2.13
2022-09-17T00:09:20.697Z,2.13
2022-09-17T00:10:55.479Z,1.90
2022-09-17T00:12:28.854Z,1.80
2022-09-17T00:14:03.327Z,1.80
2022-09-17T00:15:41.133Z,1.90
2022-09-17T00:17:14.682Z,1.90
2022-09-17T00:18:48.044Z,2.20
2022-09-17T00:20:21.837Z,2.23
2022-09-17T00:21:55.364Z,1.57
2022-09-17T00:23:28.769Z,1.87
2022-09-17T00:25:02.093Z,1.90
2022-09-17T00:26:37.340Z,1.67
2022-09-17T00:28:11.073Z,2.00
2022-09-17T00:29:44.651Z,2.10
2022-09-17T00:31:18.079Z,1.83
2022-09-17T00:32:53.166Z,1.63
2022-09-17T00:34:26.922Z,1.80
2022-09-17T00:36:00.110Z,1.87
2022-09-17T00:37:33.493Z,1.90
2022-09-17T00:39:07.751Z,1.90
2022-09-17T00:40:41.349Z,1.70
2022-09-17T00:42:16.558Z,1.60
2022-09-17T00:43:52.023Z,1.73
2022-09-17T00:45:25.854Z,1.70
2022-09-17T00:46:59.222Z,1.73
2022-09-17T00:48:33.096Z,1.93
2022-09-17T00:50:09.600Z,1.57
2022-09-17T00:51:45.249Z,1.90
2022-09-17T00:53:19.847Z,1.60
2022-09-17T00:54:56.100Z,1.80
2022-09-17T00:56:30.471Z,1.77
2022-09-17T00:58:07.657Z,1.53
2022-09-17T00:59:40.047Z,1.80
2022-09-17T01:01:14.047Z,1.50
2022-09-17T01:02:47.726Z,1.83
2022-09-17T01:04:21.866Z,1.70
2022-09-17T01:06:04.878Z,1.50
2022-09-17T01:07:46.763Z,1.47
2022-09-17T01:09:25.776Z,1.73
2022-09-17T01:11:17.082Z,1.40
2022-09-17T01:12:59.681Z,1.37
2022-09-17T01:14:46.245Z,1.40
2022-09-17T01:16:22.323Z,1.40
2022-09-17T01:18:01.160Z,1.50
2022-09-17T01:19:49.383Z,1.60
2022-09-17T01:21:39.406Z,1.43
2022-09-17T01:23:33.975Z,1.53
2022-09-17T01:25:22.990Z,1.20
2022-09-17T01:27:13.104Z,1.80
2022-09-17T01:28:49.774Z,1.47
2022-09-17T01:30:41.875Z,1.60
2022-09-17T01:32:20.448Z,1.30
2022-09-17T01:34:01.470Z,1.20
2022-09-17T01:35:38.158Z,1.27
2022-09-17T01:37:15.874Z,1.40
2022-09-17T01:38:53.111Z,1.40
2022-09-17T01:40:28.809Z,1.20
2022-09-17T01:42:07.382Z,1.13
2022-09-17T01:43:45.771Z,1.30
2022-09-17T01:45:19.993Z,1.37
2022-09-17T01:46:55.158Z,1.30
2022-09-17T01:48:33.185Z,1.40
2022-09-17T01:50:09.692Z,1.40
2022-09-17T01:51:45.968Z,1.30
2022-09-17T01:53:20.692Z,1.20
2022-09-17T01:54:56.443Z,1.30
2022-09-17T01:56:30.195Z,1.40
2022-09-17T01:58:07.476Z,1.23
2022-09-17T01:59:44.709Z,1.50
2022-09-17T02:01:19.927Z,1.40
2022-09-17T02:02:55.876Z,1.30
2022-09-17T02:04:32.239Z,1.13
2022-09-17T02:06:07.329Z,1.30
2022-09-17T02:07:43.092Z,1.67
2022-09-17T02:09:18.652Z,1.50
2022-09-17T02:10:54.317Z,1.43
2022-09-17T02:12:29.685Z,1.30
2022-09-17T02:14:05.302Z,1.20
2022-09-17T02:15:42.364Z,1.40
2022-09-17T02:17:18.214Z,1.20
2022-09-17T02:18:52.331Z,1.27
2022-09-17T02:20:31.916Z,1.30
2022-09-17T02:22:07.694Z,1.30
2022-09-17T02:23:44.665Z,1.30
2022-09-17T02:25:22.019Z,1.33
2022-09-17T02:26:57.724Z,1.23
2022-09-17T02:28:35.468Z,1.30
2022-09-17T02:30:09.101Z,1.20
2022-09-17T02:31:42.619Z,1.30
2022-09-17T02:33:15.770Z,1.30
2022-09-17T02:34:49.215Z,1.23
2022-09-17T02:36:24.678Z,1.20
2022-09-17T02:37:57.091Z,1.40
2022-09-17T02:39:30.544Z,1.30
2022-09-17T02:41:08.932Z,1.50
2022-09-17T02:42:51.128Z,1.30
2022-09-17T02:44:28.775Z,1.43
2022-09-17T02:46:08.387Z,1.57
2022-09-17T02:48:08.294Z,1.30
2022-09-17T02:49:50.537Z,1.10
2022-09-17T02:51:31.973Z,1.50
2022-09-17T02:53:13.488Z,1.47
2022-09-17T02:54:54.385Z,1.17
2022-09-17T02:56:34.026Z,1.20
2022-09-17T02:58:11.798Z,1.10
2022-09-17T02:59:50.593Z,1.20
2022-09-17T03:01:26.975Z,1.17
2022-09-17T03:03:00.339Z,1.43
2022-09-17T03:04:34.041Z,1.00
2022-09-17T03:06:07.871Z,1.30
2022-09-17T03:07:42.858Z,1.80
2022-09-17T03:09:16.273Z,1.53
2022-09-17T03:10:50.280Z,1.20
2022-09-17T03:12:26.891Z,1.03
2022-09-17T03:14:00.337Z,2.03
2022-09-17T03:15:33.711Z,1.23
2022-09-17T03:17:07.262Z,1.60
2022-09-17T03:18:40.625Z,1.27
2022-09-17T03:20:16.074Z,1.40
2022-09-17T03:21:49.459Z,1.00
2022-09-17T03:23:24.185Z,1.40
2022-09-17T03:24:57.548Z,1.40
2022-09-17T03:26:30.922Z,1.43
2022-09-17T03:28:04.473Z,1.00
2022-09-17T03:29:37.822Z,1.60
2022-09-17T03:31:10.251Z,1.47
2022-09-17T03:32:43.606Z,1.63
2022-09-17T03:34:17.176Z,1.33
2022-09-17T03:35:50.547Z,1.27
2022-09-17T03:37:23.962Z,1.37
2022-09-17T03:38:59.085Z,1.30
2022-09-17T03:40:32.707Z,1.20
2022-09-17T03:42:06.441Z,1.30
2022-09-17T03:43:39.886Z,1.27
2022-09-17T03:45:13.324Z,1.63
2022-09-17T03:46:46.780Z,1.33
2022-09-17T03:48:20.204Z,1.40
2022-09-17T03:49:53.583Z,1.27
2022-09-17T03:51:26.997Z,1.70
2022-09-17T03:52:59.378Z,1.33
2022-09-17T03:54:34.069Z,1.30
2022-09-17T03:56:08.261Z,1.30
2022-09-17T03:57:41.639Z,1.30
2022-09-17T03:59:14.064Z,1.30
2022-09-17T04:00:53.137Z,1.30
2022-09-17T04:02:26.631Z,2.00
2022-09-17T04:04:00.234Z,1.73
2022-09-17T04:05:33.080Z,1.50
2022-09-17T04:07:06.539Z,1.57
2022-09-17T04:08:39.933Z,1.50
2022-09-17T04:10:13.648Z,1.67
2022-09-17T04:11:47.019Z,1.60
2022-09-17T04:13:19.829Z,1.43
2022-09-17T04:14:53.214Z,1.47
2022-09-17T04:16:26.593Z,1.53
2022-09-17T04:17:59.333Z,1.60
2022-09-17T04:19:33.008Z,1.50
2022-09-17T04:21:06.684Z,1.50
2022-09-17T04:22:39.042Z,1.90
2022-09-17T04:24:12.596Z,1.10
2022-09-17T04:25:47.335Z,1.50
2022-09-17T04:27:20.869Z,1.37
2022-09-17T04:28:54.250Z,1.57
2022-09-17T04:30:27.608Z,1.50
2022-09-17T04:32:00.946Z,1.70
2022-09-17T04:33:34.622Z,1.20
2022-09-17T04:35:08.623Z,1.30
2022-09-17T04:36:41.996Z,1.53
2022-09-17T04:38:18.438Z,1.50
2022-09-17T04:39:50.953Z,1.43
2022-09-17T04:41:25.743Z,1.40
2022-09-17T04:42:59.541Z,1.30
2022-09-17T04:44:32.918Z,1.60
2022-09-17T04:46:06.421Z,1.57
2022-09-17T04:47:39.695Z,1.30
2022-09-17T04:49:13.092Z,1.47
2022-09-17T04:50:46.469Z,1.40
2022-09-17T04:52:19.138Z,1.40
2022-09-17T04:53:52.620Z,1.60
2022-09-17T04:55:25.345Z,1.53
2022-09-17T04:57:01.279Z,1.73
2022-09-17T04:58:34.625Z,1.67
2022-09-17T05:00:08.357Z,1.30
2022-09-17T05:01:42.533Z,1.60
2022-09-17T05:03:14.979Z,1.77
2022-09-17T05:04:48.408Z,1.43
2022-09-17T05:06:21.778Z,1.57
2022-09-17T05:07:55.166Z,1.67
2022-09-17T05:09:28.525Z,1.70
2022-09-17T05:11:01.854Z,1.57
2022-09-17T05:12:36.785Z,1.90
2022-09-17T05:14:10.249Z,1.63
2022-09-17T05:15:43.844Z,1.80
2022-09-17T05:17:16.255Z,1.67
2022-09-17T05:18:51.654Z,1.77
2022-09-17T05:20:25.021Z,1.70
2022-09-17T05:21:58.386Z,1.60
2022-09-17T05:23:31.922Z,1.90
2022-09-17T05:25:04.603Z,1.63
2022-09-17T05:26:37.957Z,1.93
2022-09-17T05:28:12.691Z,2.17
2022-09-17T05:29:46.645Z,1.93
2022-09-17T05:31:20.086Z,1.80
2022-09-17T05:33:00.378Z,1.50
2022-09-17T05:34:34.007Z,2.13
2022-09-17T05:36:08.147Z,1.70
2022-09-17T05:37:41.611Z,1.67
2022-09-17T05:39:14.987Z,1.77
2022-09-17T05:40:49.026Z,1.70
2022-09-17T05:42:22.826Z,1.70
2022-09-17T05:43:57.571Z,2.07
2022-09-17T05:45:31.426Z,1.60
2022-09-17T05:47:04.793Z,1.50
2022-09-17T05:48:38.213Z,1.70
2022-09-17T05:50:11.586Z,1.70
2022-09-17T05:51:47.276Z,1.80
2022-09-17T05:53:20.663Z,1.80
2022-09-17T05:54:54.067Z,1.50
2022-09-17T05:56:27.413Z,1.70
2022-09-17T05:58:01.012Z,1.60
2022-09-17T05:59:36.247Z,1.57
2022-09-17T06:01:15.964Z,1.77
2022-09-17T06:02:50.162Z,1.40
2022-09-17T06:04:24.055Z,1.30
2022-09-17T06:05:58.212Z,1.70
2022-09-17T06:07:31.631Z,1.50
2022-09-17T06:09:05.202Z,1.47
2022-09-17T06:10:38.848Z,1.47
2022-09-17T06:12:12.200Z,1.20
2022-09-17T06:13:45.968Z,1.50
2022-09-17T06:15:19.740Z,1.53
2022-09-17T06:16:53.364Z,1.30
2022-09-17T06:18:26.761Z,1.50
2022-09-17T06:20:00.183Z,1.40
2022-09-17T06:21:33.577Z,1.27
2022-09-17T06:23:07.044Z,1.37
2022-09-17T06:24:40.411Z,1.30
2022-09-17T06:26:13.802Z,1.20
2022-09-17T06:27:47.168Z,1.33
2022-09-17T06:29:20.566Z,1.20
2022-09-17T06:30:57.193Z,1.10
2022-09-17T06:32:31.192Z,1.17
2022-09-17T06:34:05.739Z,1.00
2022-09-17T06:35:39.311Z,1.00
2022-09-17T06:37:12.692Z,1.07
2022-09-17T06:38:47.092Z,0.90
2022-09-17T06:40:23.742Z,1.20
2022-09-17T06:41:57.213Z,1.00
2022-09-17T06:43:30.596Z,0.90
2022-09-17T06:45:08.143Z,0.90
2022-09-17T06:46:45.059Z,0.80
2022-09-17T06:48:18.540Z,0.90
2022-09-17T06:49:51.963Z,0.93
2022-09-17T06:51:25.366Z,0.80
2022-09-17T06:52:58.758Z,0.70
2022-09-17T06:54:32.238Z,0.60
2022-09-17T06:56:06.827Z,0.57
2022-09-17T06:57:40.485Z,0.73
2022-09-17T06:59:13.912Z,0.80
2022-09-17T07:00:47.338Z,0.50
2022-09-17T07:02:22.124Z,0.50
2022-09-17T07:03:55.572Z,0.60
2022-09-17T07:05:28.648Z,0.43
2022-09-17T07:07:02.219Z,0.43
2022-09-17T07:08:34.701Z,0.50
2022-09-17T07:10:08.654Z,0.60
2022-09-17T07:11:42.021Z,0.53
2022-09-17T07:13:15.436Z,0.40
2022-09-17T07:14:49.008Z,0.40
2022-09-17T07:16:22.692Z,0.50
2022-09-17T07:17:57.802Z,0.50
2022-09-17T07:19:30.207Z,0.57
2022-09-17T07:21:04.472Z,0.40
2022-09-17T07:22:37.903Z,0.60
2022-09-17T07:24:11.450Z,0.50
2022-09-17T07:25:44.840Z,0.60
2022-09-17T07:27:18.370Z,0.50
2022-09-17T07:28:51.831Z,0.53
2022-09-17T07:30:25.298Z,0.50
2022-09-17T07:31:59.510Z,0.63
2022-09-17T07:33:34.558Z,0.70
2022-09-17T07:35:08.242Z,0.80
2022-09-17T07:36:41.637Z,0.90
2022-09-17T07:38:15.029Z,1.10
2022-09-17T07:39:48.515Z,1.30
2022-09-17T07:41:22.305Z,1.57
2022-09-17T07:42:59.224Z,1.97
2022-09-17T07:44:32.608Z,2.60
2022-09-17T07:46:06.641Z,3.00
2022-09-17T07:47:41.379Z,3.33
2022-09-17T07:49:16.587Z,3.20
2022-09-17T07:50:50.013Z,3.80
2022-09-17T07:52:23.394Z,4.07
2022-09-17T07:53:57.883Z,3.90
2022-09-17T07:55:31.733Z,4.37
2022-09-17T07:57:05.170Z,4.43
2022-09-17T07:58:38.676Z,4.17
2022-09-17T08:00:12.725Z,4.40
2022-09-17T08:01:46.584Z,4.77
2022-09-17T08:03:20.050Z,4.77
2022-09-17T08:04:55.321Z,4.63
2022-09-17T08:06:28.948Z,4.47
2022-09-17T08:08:02.755Z,4.37
2022-09-17T08:09:36.130Z,4.80
2022-09-17T08:11:10.496Z,5.17
2022-09-17T08:12:43.858Z,4.93
2022-09-17T08:14:17.674Z,4.87
2022-09-17T08:15:51.065Z,5.50
2022-09-17T08:17:24.517Z,5.57
2022-09-17T08:18:59.217Z,6.23
2022-09-17T08:20:34.000Z,7.70
2022-09-17T08:22:07.362Z,8.27
2022-09-17T08:23:41.586Z,11.57
2022-09-17T08:25:15.329Z,9.10
2022-09-17T08:26:48.744Z,9.77
2022-09-17T08:28:22.267Z,7.60
2022-09-17T08:29:55.681Z,5.40
2022-09-17T08:31:30.157Z,4.90
2022-09-17T08:33:03.679Z,5.10
2022-09-17T08:34:37.340Z,4.63
2022-09-17T08:36:12.822Z,4.63
2022-09-17T08:37:47.425Z,4.67
2022-09-17T08:39:20.829Z,4.40
2022-09-17T08:40:59.045Z,4.43
2022-09-17T08:42:34.190Z,4.43
2022-09-17T08:44:11.427Z,4.00
2022-09-17T08:45:45.194Z,4.07
2022-09-17T08:47:22.512Z,4.43
2022-09-17T08:48:58.308Z,3.77
2022-09-17T08:50:33.990Z,4.10
2022-09-17T08:52:22.285Z,4.03
2022-09-17T08:54:01.885Z,3.57
2022-09-17T08:55:39.007Z,3.70
2022-09-17T08:57:17.300Z,3.90
2022-09-17T08:59:08.275Z,4.10
2022-09-17T09:00:43.445Z,4.00
2022-09-17T09:02:22.902Z,3.63
2022-09-17T09:04:04.866Z,4.57
2022-09-17T09:05:42.708Z,4.00
2022-09-17T09:07:18.900Z,4.30
2022-09-17T09:08:55.713Z,4.23
2022-09-17T09:10:33.677Z,4.17
2022-09-17T09:12:08.559Z,3.60
2022-09-17T09:13:43.226Z,3.70
2022-09-17T09:15:24.701Z,3.63
2022-09-17T09:16:58.932Z,3.27
2022-09-17T09:18:33.039Z,3.63
2022-09-17T09:20:07.930Z,3.20
2022-09-17T09:21:45.672Z,3.30
2022-09-17T09:23:20.802Z,2.90
2022-09-17T09:24:59.618Z,2.90
2022-09-17T09:26:44.543Z,3.00
2022-09-17T09:28:23.875Z,3.00
2022-09-17T09:30:04.123Z,3.03
2022-09-17T09:31:48.877Z,3.20
2022-09-17T09:33:25.184Z,3.30
2022-09-17T09:34:59.416Z,2.80
2022-09-17T09:36:34.477Z,3.10
2022-09-17T09:38:13.994Z,2.70
2022-09-17T09:39:47.742Z,2.63
2022-09-17T09:41:22.516Z,2.53
2022-09-17T09:42:59.680Z,2.73
2022-09-17T09:44:33.091Z,2.50
2022-09-17T09:46:11.826Z,2.43
2022-09-17T09:47:50.288Z,2.30
2022-09-17T09:49:28.458Z,2.07
2022-09-17T09:51:16.110Z,1.80
2022-09-17T09:52:59.702Z,2.10
2022-09-17T09:54:39.737Z,2.13
2022-09-17T09:56:20.650Z,2.00
2022-09-17T09:57:56.495Z,2.70
2022-09-17T09:59:31.382Z,3.03
2022-09-17T10:01:04.769Z,2.20
2022-09-17T10:02:38.794Z,1.60
2022-09-17T10:04:22.473Z,2.97
2022-09-17T10:05:59.209Z,1.70
2022-09-17T10:07:33.652Z,1.50
2022-09-17T10:09:14.960Z,1.80
2022-09-17T10:10:59.885Z,1.30
2022-09-17T10:12:34.248Z,1.53
2022-09-17T10:14:18.989Z,1.70
2022-09-17T10:15:54.702Z,1.47
2022-09-17T10:17:29.608Z,1.50
2022-09-17T10:19:15.117Z,1.60
2022-09-17T10:20:56.978Z,2.40
2022-09-17T10:22:32.439Z,2.27
2022-09-17T10:24:07.858Z,1.80
2022-09-17T10:25:46.780Z,2.30
2022-09-17T10:27:21.041Z,1.90
2022-09-17T10:28:55.538Z,1.80
2022-09-17T10:30:28.916Z,2.63
2022-09-17T10:32:06.904Z,2.17
2022-09-17T10:33:51.474Z,1.33
2022-09-17T10:35:28.549Z,1.27
2022-09-17T10:37:01.669Z,4.00
2022-09-17T10:38:37.398Z,1.90
2022-09-17T10:40:32.614Z,1.73
2022-09-17T10:42:07.049Z,2.27
2022-09-17T10:43:39.468Z,5.70
2022-09-17T10:45:25.166Z,5.77
2022-09-17T10:47:07.227Z,2.07
2022-09-17T10:48:44.878Z,1.40
2022-09-17T10:50:19.616Z,1.73
2022-09-17T10:51:53.130Z,2.30
2022-09-17T10:53:26.388Z,2.63
2022-09-17T10:55:24.481Z,2.83
2022-09-17T10:57:00.649Z,2.40
2022-09-17T10:58:45.010Z,1.30
2022-09-17T11:00:20.310Z,1.23
2022-09-17T11:02:06.219Z,1.20
2022-09-17T11:03:52.742Z,1.27
2022-09-17T11:05:41.137Z,1.10
2022-09-17T11:07:31.209Z,0.90
2022-09-17T11:09:15.555Z,1.10
2022-09-17T11:10:58.534Z,1.13
2022-09-17T11:12:43.100Z,1.00
2022-09-17T11:14:35.996Z,1.00
2022-09-17T11:16:19.995Z,1.30
2022-09-17T11:18:07.334Z,1.50
2022-09-17T11:19:53.378Z,1.03
2022-09-17T11:21:46.749Z,1.27
2022-09-17T11:23:33.305Z,1.47
2022-09-17T11:25:34.769Z,1.37
2022-09-17T11:27:16.555Z,1.80
2022-09-17T11:29:01.919Z,1.50
2022-09-17T11:30:47.305Z,2.00
2022-09-17T11:32:35.786Z,2.00
2022-09-17T11:34:28.814Z,1.70
2022-09-17T11:36:11.933Z,1.50
2022-09-17T11:37:49.314Z,1.27
2022-09-17T11:39:26.689Z,1.40
2022-09-17T11:41:05.613Z,1.50
2022-09-17T11:42:46.510Z,1.70
2022-09-17T11:44:26.348Z,2.10
2022-09-17T11:46:05.750Z,1.83
2022-09-17T11:47:45.904Z,1.60
2022-09-17T11:49:28.410Z,1.67
2022-09-17T11:51:13.884Z,1.33
2022-09-17T11:52:55.958Z,1.70
2022-09-17T11:54:32.339Z,1.90
2022-09-17T11:56:10.918Z,2.10
2022-09-17T11:57:45.582Z,1.50
2022-09-17T11:59:26.256Z,1.30
2022-09-17T12:01:04.911Z,1.43
2022-09-17T12:02:48.925Z,1.63
2022-09-17T12:04:40.635Z,1.67
2022-09-17T12:06:17.437Z,1.70
2022-09-17T12:07:55.298Z,1.80
2022-09-17T12:09:33.496Z,2.53
2022-09-17T12:11:14.542Z,2.50
2022-09-17T12:13:01.506Z,2.60
2022-09-17T12:14:44.210Z,2.50
2022-09-17T12:16:22.195Z,2.33
2022-09-17T12:18:30.458Z,2.67
2022-09-17T12:20:03.024Z,2.27
2022-09-17T12:21:41.550Z,2.77
2022-09-17T12:23:19.780Z,2.20
2022-09-17T12:24:56.397Z,2.10
2022-09-17T12:26:46.068Z,2.23
2022-09-17T12:28:26.930Z,2.37
2022-09-17T12:30:16.481Z,3.40
2022-09-17T12:31:59.416Z,1.70
2022-09-17T12:33:38.680Z,1.87
2022-09-17T12:35:21.201Z,1.93
2022-09-17T12:37:05.412Z,2.20
2022-09-17T12:39:07.162Z,1.80
2022-09-17T12:40:46.364Z,1.90
2022-09-17T12:42:45.224Z,2.20
2022-09-17T12:44:31.043Z,3.23
2022-09-17T12:46:27.929Z,3.17
2022-09-17T12:48:39.910Z,2.00
2022-09-17T12:50:21.309Z,2.33
2022-09-17T12:52:01.353Z,2.13
2022-09-17T12:53:38.678Z,2.10
2022-09-17T12:55:28.462Z,2.10
2022-09-17T12:57:09.682Z,3.63
2022-09-17T12:58:54.874Z,3.40
2022-09-17T13:00:28.638Z,2.90
2022-09-17T13:02:05.564Z,2.30
2022-09-17T13:03:43.854Z,2.57
2022-09-17T13:05:41.262Z,2.50
2022-09-17T13:07:40.396Z,1.80
2022-09-17T13:09:47.062Z,2.10
2022-09-17T13:11:41.371Z,2.23
2022-09-17T13:13:34.070Z,2.37
2022-09-17T13:15:43.694Z,1.90
2022-09-17T13:17:23.587Z,1.63
2022-09-17T13:19:16.193Z,2.03
2022-09-17T13:21:02.910Z,2.00
2022-09-17T13:22:46.384Z,1.87
2022-09-17T13:24:21.609Z,1.70
2022-09-17T13:25:54.757Z,1.60
2022-09-17T13:27:27.904Z,2.07
2022-09-17T13:29:01.933Z,1.67
2022-09-17T13:30:57.008Z,1.80
2022-09-17T13:32:52.500Z,1.97
2022-09-17T13:34:31.239Z,2.00
2022-09-17T13:36:04.761Z,2.03
2022-09-17T13:37:40.705Z,1.73
2022-09-17T13:39:36.790Z,2.10
2022-09-17T13:41:21.377Z,2.27
2022-09-17T13:42:56.942Z,1.80
2022-09-17T13:44:30.181Z,1.20
2022-09-17T13:46:12.554Z,1.20
2022-09-17T13:47:52.469Z,1.03
2022-09-17T13:49:25.726Z,1.67
2022-09-17T13:50:57.896Z,1.23
2022-09-17T13:52:35.911Z,1.00
2022-09-17T13:54:10.933Z,1.00
2022-09-17T13:55:46.490Z,1.17
2022-09-17T13:57:19.951Z,0.80
2022-09-17T13:58:52.304Z,1.07
2022-09-17T14:00:56.736Z,0.90
2022-09-17T14:02:37.513Z,0.87
2022-09-17T14:04:33.619Z,1.17
2022-09-17T14:06:39.793Z,1.10
2022-09-17T14:08:38.696Z,1.10
2022-09-17T14:12:50.890Z,1.30
2022-09-17T14:14:52.006Z,1.53
2022-09-17T14:16:37.079Z,1.37
2022-09-17T14:18:35.403Z,1.43
2022-09-17T14:20:10.216Z,1.67
2022-09-17T14:21:44.932Z,1.50
2022-09-17T14:23:17.972Z,5.53
2022-09-17T14:24:53.029Z,1.40
2022-09-17T14:26:47.329Z,1.43
2022-09-17T14:28:33.154Z,1.57
2022-09-17T14:30:17.197Z,1.87
2022-09-17T14:31:50.655Z,1.60
2022-09-17T14:33:28.513Z,2.33
2022-09-17T14:35:03.420Z,1.77
2022-09-17T14:36:39.194Z,1.93
2022-09-17T14:38:16.286Z,1.43
2022-09-17T14:39:50.160Z,2.30
2022-09-17T14:41:25.983Z,1.77
2022-09-17T14:42:59.966Z,2.03
2022-09-17T14:44:34.611Z,2.63
2022-09-17T14:46:14.092Z,1.97
2022-09-17T14:47:47.251Z,2.00
2022-09-17T14:49:23.677Z,1.63
2022-09-17T14:51:28.252Z,1.90
2022-09-17T14:53:09.317Z,1.63
2022-09-17T14:54:44.650Z,1.83
2022-09-17T14:56:19.396Z,2.00
2022-09-17T14:57:54.410Z,1.60
2022-09-17T14:59:37.381Z,1.97
2022-09-17T15:01:24.086Z,1.60
2022-09-17T15:02:59.596Z,1.70
2022-09-17T15:04:32.821Z,1.80
2022-09-17T15:06:06.503Z,1.90
2022-09-17T15:07:43.023Z,1.97
2022-09-17T15:09:19.600Z,1.70
2022-09-17T15:10:55.405Z,1.80
2022-09-17T15:12:30.865Z,1.70
2022-09-17T15:14:09.393Z,1.73
2022-09-17T15:15:58.439Z,2.07
2022-09-17T15:17:34.034Z,2.03
2022-09-17T15:19:07.160Z,2.10
2022-09-17T15:20:40.535Z,7.13
2022-09-17T15:22:18.070Z,4.33
2022-09-17T15:23:53.846Z,2.47
2022-09-17T15:25:31.194Z,1.80
2022-09-17T15:27:10.775Z,1.90
2022-09-17T15:28:46.609Z,1.30
2022-09-17T15:30:21.191Z,1.53
2022-09-17T15:31:55.937Z,1.57
2022-09-17T15:33:32.414Z,2.00
2022-09-17T15:35:23.946Z,1.90
2022-09-17T15:37:07.515Z,1.87
2022-09-17T15:38:42.360Z,1.43
2022-09-17T15:40:24.369Z,2.00
2022-09-17T15:41:58.359Z,1.63
2022-09-17T15:43:34.143Z,1.90
2022-09-17T15:45:19.081Z,1.90
2022-09-17T15:46:52.174Z,1.80
2022-09-17T15:48:38.510Z,2.10
2022-09-17T15:50:16.225Z,1.73
2022-09-17T15:51:50.110Z,2.00
2022-09-17T15:53:26.079Z,1.60
2022-09-17T15:54:59.378Z,1.53
2022-09-17T15:56:35.298Z,1.73
2022-09-17T15:58:23.587Z,1.60
2022-09-17T15:59:57.476Z,1.70
2022-09-17T16:01:52.888Z,1.60
2022-09-17T16:04:07.244Z,1.80
2022-09-17T16:05:46.465Z,1.30
2022-09-17T16:07:29.920Z,1.67
2022-09-17T16:09:03.056Z,1.53
2022-09-17T16:10:36.384Z,1.83
2022-09-17T16:12:12.945Z,2.10
2022-09-17T16:13:47.853Z,1.70
2022-09-17T16:15:21.071Z,1.60
2022-09-17T16:16:54.914Z,1.60
2022-09-17T16:18:28.009Z,1.70
2022-09-17T16:20:08.137Z,1.43
2022-09-17T16:21:41.274Z,1.73
2022-09-17T16:23:14.366Z,1.67
2022-09-17T16:24:46.424Z,1.40
2022-09-17T16:26:21.754Z,6.97
2022-09-17T16:27:58.798Z,1.90
2022-09-17T16:29:30.979Z,1.80
2022-09-17T16:31:04.138Z,1.80
2022-09-17T16:32:37.431Z,1.63
2022-09-17T16:34:10.692Z,1.80
2022-09-17T16:35:45.408Z,1.50
2022-09-17T16:37:18.668Z,1.90
2022-09-17T16:38:51.760Z,1.50
2022-09-17T16:40:28.010Z,1.80
2022-09-17T16:42:01.267Z,1.47
2022-09-17T16:43:35.432Z,1.60
2022-09-17T16:45:09.813Z,1.63
2022-09-17T16:46:43.035Z,1.70
2022-09-17T16:48:17.753Z,1.73
2022-09-17T16:49:50.004Z,1.83
2022-09-17T16:51:24.418Z,1.53
2022-09-17T16:53:01.522Z,1.67
2022-09-17T16:54:37.244Z,1.60
2022-09-17T16:56:11.606Z,1.50
2022-09-17T16:57:45.334Z,1.50
2022-09-17T16:59:18.555Z,1.60
2022-09-17T17:00:51.613Z,1.73
2022-09-17T17:02:25.042Z,2.07
2022-09-17T17:03:59.544Z,1.60
2022-09-17T17:05:38.728Z,1.63
2022-09-17T17:07:13.120Z,1.47
2022-09-17T17:08:46.253Z,1.60
2022-09-17T17:10:20.280Z,1.90
2022-09-17T17:11:53.345Z,1.67
2022-09-17T17:13:27.629Z,1.40
2022-09-17T17:15:01.224Z,1.80
2022-09-17T17:16:34.341Z,1.73
2022-09-17T17:18:07.708Z,1.93
2022-09-17T17:19:41.236Z,1.43
2022-09-17T17:21:15.618Z,1.40
2022-09-17T17:22:51.697Z,1.83
2022-09-17T17:24:25.085Z,1.70
2022-09-17T17:25:58.129Z,2.40
2022-09-17T17:27:31.237Z,1.70
2022-09-17T17:29:04.567Z,1.77
2022-09-17T17:30:38.382Z,1.40
2022-09-17T17:32:11.428Z,1.77
2022-09-17T17:33:44.610Z,1.43
2022-09-17T17:35:17.844Z,1.50
2022-09-17T17:36:50.966Z,1.40
2022-09-17T17:38:25.410Z,1.90
2022-09-17T17:39:58.901Z,2.00
2022-09-17T17:41:31.993Z,1.73
2022-09-17T17:43:05.046Z,1.97
2022-09-17T17:44:38.081Z,1.70
2022-09-17T17:46:12.658Z,1.80
2022-09-17T17:47:45.737Z,1.33
2022-09-17T17:49:18.803Z,1.47
2022-09-17T17:50:56.408Z,1.00
2022-09-17T17:52:30.014Z,1.53
2022-09-17T17:54:04.835Z,1.23
2022-09-17T17:55:38.287Z,1.23
2022-09-17T17:57:11.534Z,1.50
2022-09-17T17:58:44.774Z,1.50
2022-09-17T18:00:18.351Z,1.10
2022-09-17T18:01:51.871Z,1.10
2022-09-17T18:03:25.194Z,1.40
2022-09-17T18:05:03.395Z,1.13
2022-09-17T18:06:37.542Z,1.43
2022-09-17T18:08:09.604Z,1.10
2022-09-17T18:09:44.535Z,1.10
2022-09-17T18:11:17.633Z,1.30
2022-09-17T18:12:51.074Z,1.20
2022-09-17T18:14:24.155Z,1.00
2022-09-17T18:15:59.575Z,1.23
2022-09-17T18:17:32.628Z,1.03
2022-09-17T18:19:06.428Z,1.17
2022-09-17T18:20:39.462Z,1.00
2022-09-17T18:22:12.606Z,0.80
2022-09-17T18:23:46.476Z,0.97
2022-09-17T18:25:20.951Z,0.70
2022-09-17T18:26:53.998Z,0.80
2022-09-17T18:28:28.125Z,0.90
2022-09-17T18:30:01.168Z,1.00
2022-09-17T18:31:35.904Z,0.97
2022-09-17T18:33:09.104Z,1.10
2022-09-17T18:34:42.687Z,1.00
2022-09-17T18:36:15.811Z,0.90
2022-09-17T18:37:48.110Z,0.80
2022-09-17T18:39:56.942Z,0.83
2022-09-17T18:41:15.876Z,1.17
2022-09-17T18:42:49.752Z,0.80
2022-09-17T18:44:22.857Z,0.80
2022-09-17T18:45:56.511Z,1.00
2022-09-17T18:47:29.637Z,0.80
2022-09-17T18:49:03.200Z,0.90
2022-09-17T18:50:36.578Z,0.70
2022-09-17T18:52:09.625Z,0.73
2022-09-17T18:53:42.698Z,0.70
2022-09-17T18:55:15.947Z,1.00
2022-09-17T18:56:50.356Z,1.00
2022-09-17T18:58:23.794Z,1.13
2022-09-17T18:59:58.362Z,1.10
2022-09-17T19:01:32.641Z,0.77
2022-09-17T19:03:05.739Z,0.87
2022-09-17T19:04:38.830Z,0.80
2022-09-17T19:06:15.135Z,0.80
2022-09-17T19:07:48.715Z,1.00
2022-09-17T19:09:21.805Z,1.03
2022-09-17T19:10:55.336Z,0.90
2022-09-17T19:12:29.887Z,1.00
2022-09-17T19:14:03.136Z,1.00
2022-09-17T19:15:36.253Z,0.90
2022-09-17T19:17:09.982Z,0.87
2022-09-17T19:18:43.240Z,0.80
2022-09-17T19:20:19.554Z,0.87
2022-09-17T19:21:52.609Z,0.90
2022-09-17T19:23:25.652Z,1.07
2022-09-17T19:24:58.707Z,0.80
2022-09-17T19:26:31.879Z,0.80
2022-09-17T19:28:06.905Z,0.90
2022-09-17T19:29:39.972Z,0.80
2022-09-17T19:31:15.159Z,0.93
2022-09-17T19:32:48.486Z,1.00
2022-09-17T19:34:24.118Z,0.87
2022-09-17T19:36:00.680Z,0.90
2022-09-17T19:37:33.753Z,1.00
2022-09-17T19:39:07.029Z,0.87
2022-09-17T19:40:40.891Z,1.00
2022-09-17T19:42:14.182Z,1.10
2022-09-17T19:43:51.422Z,0.77
2022-09-17T19:45:24.568Z,1.00
2022-09-17T19:46:57.727Z,1.10
2022-09-17T19:48:31.186Z,0.90
2022-09-17T19:50:04.335Z,0.70
2022-09-17T19:51:37.747Z,0.80
2022-09-17T19:53:10.995Z,1.10
2022-09-17T19:54:44.035Z,0.87
2022-09-17T19:56:19.614Z,0.70
2022-09-17T19:57:52.859Z,0.60
2022-09-17T19:59:27.657Z,0.70
2022-09-17T20:01:00.969Z,0.70
2022-09-17T20:02:34.158Z,0.70
2022-09-17T20:04:08.058Z,0.80
2022-09-17T20:05:41.293Z,0.87
2022-09-17T20:07:14.575Z,0.60
2022-09-17T20:08:48.288Z,0.90
2022-09-17T20:10:21.575Z,0.80
2022-09-17T20:11:55.058Z,0.90
2022-09-17T20:13:31.412Z,0.83
2022-09-17T20:15:06.779Z,0.80
2022-09-17T20:16:40.984Z,0.83
2022-09-17T20:18:13.106Z,1.00
2022-09-17T20:19:46.179Z,1.00
2022-09-17T20:21:21.078Z,1.10
2022-09-17T20:22:54.114Z,1.07
2022-09-17T20:24:27.229Z,0.70
2022-09-17T20:26:00.470Z,0.80
2022-09-17T20:27:33.936Z,1.20
2022-09-17T20:29:07.041Z,1.30
2022-09-17T20:30:41.464Z,1.17
2022-09-17T20:32:14.515Z,1.00
2022-09-17T20:33:48.000Z,1.07
2022-09-17T20:35:21.458Z,1.00
2022-09-17T20:37:11.790Z,0.90
2022-09-17T20:40:39.358Z,1.00
2022-09-17T20:42:12.476Z,1.03
2022-09-17T20:43:46.650Z,0.87
2022-09-17T20:45:19.704Z,0.80
2022-09-17T20:46:54.662Z,1.00
2022-09-17T20:48:26.773Z,0.73
2022-09-17T20:49:59.834Z,1.00
2022-09-17T20:51:33.938Z,1.07
2022-09-17T20:53:07.213Z,1.10
2022-09-17T20:54:40.266Z,1.00
2022-09-17T20:56:14.986Z,0.90
2022-09-17T20:57:48.224Z,1.00
2022-09-17T20:59:24.926Z,0.90
2022-09-17T21:01:08.846Z,0.80
2022-09-17T21:02:50.234Z,0.80
2022-09-17T21:04:24.179Z,0.80
2022-09-17T21:05:56.335Z,0.70
2022-09-17T21:07:29.379Z,0.90
2022-09-17T21:09:03.379Z,0.90
2022-09-17T21:10:36.537Z,1.00
2022-09-17T21:12:10.461Z,0.70
2022-09-17T21:13:43.671Z,0.90
2022-09-17T21:15:16.842Z,0.70
2022-09-17T21:16:50.298Z,0.90
2022-09-17T21:18:23.815Z,0.80
2022-09-17T21:19:57.831Z,0.70
2022-09-17T21:21:34.279Z,0.60
2022-09-17T21:23:07.597Z,0.60
2022-09-17T21:24:40.660Z,0.67
2022-09-17T21:26:15.721Z,0.70
2022-09-17T21:27:48.981Z,0.90
2022-09-17T21:29:22.050Z,0.83
2022-09-17T21:31:03.961Z,0.80
2022-09-17T21:32:37.855Z,0.80
2022-09-17T21:34:14.510Z,1.13